Waren, Germany

4:24 AM CET on November 27, 2014 (GMT +0100)
Mecklenburg-Vorpommern | Change Station
CLOSE
Current Station
Personal Weather Station
Location: Rosenow, MECKLENBURG-VORPOMMERN
Elevation: 197 ft
Nearby Weather Stations

Elev 197 ft 53.60 °N, 12.99 °E | Updated 7 minutes ago

Mostly Cloudy
Mostly Cloudy
35.3 °F
Feels Like 35 °F
N
3.0
Wind Variable Wind from ENE
Gusts 9.0 mph

Today
High -- | Low -- °F
--% Chance of Precip.
Yesterday
High -- | Low -- °F
Precip. -- in
7:55 AM 3:57 PM
Waxing Crescent, 25% visible
Pressure 30.09 in
Visibility 3.1 miles
Clouds Mostly Cloudy 400 ft
Windchill 35 °F
Dew Point 35 °F
Humidity 97%
Rainfall 0.00 in
Snow Depth Not available.
UV 0 out of 12
Pollen Not available.
Air Quality Not available.
Flu Activity Not available.
SPECI ETNL 270308Z 12010KT 5000 BR BKN004 01/01 Q1019 YLO

More Conditions Fewer Conditions

Pressure 30.09 in
Visibility 3.1 miles
Clouds Mostly Cloudy 400 ft
Windchill 35 °F
Dew Point 35 °F
Humidity 97%
Rainfall 0.00 in
Snow Depth Not available.
UV 0 out of 12
Pollen Not available.
Air Quality Not available.
Flu Activity Not available.
SPECI ETNL 270308Z 12010KT 5000 BR BKN004 01/01 Q1019 YLO

More Conditions Fewer Conditions

10-Day Weather Forecast

Almanac

Astronomy

Nov. 27, 2014 Rise Set
Actual Time
Civil Twilight
Nautical Twilight
Astronomical Twilight
Moon
Length of Visible Light
Length of Day
Tomorrow will be .
, % of the Moon is Illuminated

Today's Extremes

Country Highs Country Lows

Community

WunderPhotos

Upload Photos

1,773,949 photos uploaded!

WunderBlogs® & News

Nearby

Air Quality

  Air Quality AQ Index Pollutant
Not available.

Snow Depth

Station Depth Elevation

Earthquake Activity

City Distance Mag. Time & Date
Minimum magnitude displayed is 2.5.

Coastal Water Temperatures

Place Temperature

Nearby Weather Stations